createdAt,value
2023-02-23T00:03:18.497Z,96911.16
2023-02-23T00:13:21.757Z,96909.09
2023-02-23T00:23:27.496Z,96905.44
2023-02-23T00:33:32.656Z,96902.67
2023-02-23T00:43:37.677Z,96907.98
2023-02-23T00:53:42.370Z,96904.71
2023-02-23T01:03:46.103Z,96904.11
2023-02-23T01:13:52.113Z,96905.45
2023-02-23T01:23:56.255Z,96898.77
2023-02-23T01:34:01.535Z,96892.75
2023-02-23T01:44:28.240Z,96887.53
2023-02-23T01:54:41.884Z,96878.77
2023-02-23T02:04:45.362Z,96872.70
2023-02-23T02:14:49.061Z,96867.73
2023-02-23T02:25:23.336Z,96865.10
2023-02-23T02:35:44.525Z,96863.42
2023-02-23T02:46:14.029Z,96861.33
2023-02-23T02:56:20.128Z,96854.05
2023-02-23T03:06:56.378Z,96854.86
2023-02-23T03:17:32.746Z,96851.52
2023-02-23T03:28:00.653Z,96848.48
2023-02-23T03:38:36.006Z,96850.77
2023-02-23T03:48:59.563Z,96849.20
2023-02-23T03:59:25.686Z,96850.64
2023-02-23T04:09:48.783Z,96849.84
2023-02-23T04:19:54.250Z,96850.01
2023-02-23T04:29:57.497Z,96849.30
2023-02-23T04:40:00.608Z,96851.11
2023-02-23T04:50:04.352Z,96852.48
2023-02-23T05:00:09.945Z,96850.09
2023-02-23T05:10:13.813Z,96842.15
2023-02-23T05:20:17.110Z,96845.90
2023-02-23T05:30:20.616Z,96844.42
2023-02-23T05:40:23.780Z,96851.40
2023-02-23T05:50:27.098Z,96852.91
2023-02-23T06:00:30.295Z,96853.22
2023-02-23T06:10:33.389Z,96863.78
2023-02-23T06:20:40.226Z,96866.10
2023-02-23T06:30:44.431Z,96867.50
2023-02-23T06:40:47.687Z,96864.57
2023-02-23T06:50:51.882Z,96865.96
2023-02-23T07:01:13.316Z,96868.87
2023-02-23T07:11:19.892Z,96865.07
2023-02-23T07:21:23.448Z,96861.91
2023-02-23T07:31:26.854Z,96861.92
2023-02-23T07:41:31.116Z,96858.63
2023-02-23T07:51:34.338Z,96858.94
2023-02-23T08:01:37.600Z,96859.30
2023-02-23T08:11:40.834Z,96854.00
2023-02-23T08:21:44.267Z,96854.65
2023-02-23T08:31:47.803Z,96857.94
2023-02-23T08:41:51.983Z,96852.83
2023-02-23T08:51:55.284Z,96848.66
2023-02-23T09:01:58.764Z,96843.95
2023-02-23T09:12:02.351Z,96842.34
2023-02-23T09:22:05.740Z,96841.97
2023-02-23T09:32:11.359Z,96839.42
2023-02-23T09:42:38.286Z,96837.04
2023-02-23T09:52:47.741Z,96831.36
2023-02-23T10:03:11.848Z,96822.40
2023-02-23T10:13:55.844Z,96820.80
2023-02-23T10:24:53.379Z,96816.09
2023-02-23T10:34:57.057Z,96807.21
2023-02-23T10:45:00.744Z,96803.31
2023-02-23T10:55:08.510Z,96793.94
2023-02-23T11:06:05.764Z,96787.38
2023-02-23T11:16:15.136Z,96776.73
2023-02-23T11:26:25.072Z,96764.71
2023-02-23T11:36:31.295Z,96755.34
2023-02-23T11:46:40.072Z,96741.48
2023-02-23T11:56:53.205Z,96732.56
2023-02-23T12:07:19.807Z,96719.95
2023-02-23T12:17:33.240Z,96711.42
2023-02-23T12:27:45.346Z,96707.31
2023-02-23T12:38:00.673Z,96699.39
2023-02-23T12:48:24.097Z,96695.64
2023-02-23T12:59:06.937Z,96687.34
2023-02-23T13:21:49.894Z,96656.56
2023-02-23T13:31:54.334Z,96652.58
2023-02-23T13:42:16.129Z,96639.89
2023-02-23T13:52:43.308Z,96631.95
2023-02-23T14:02:47.281Z,96619.14
2023-02-23T14:13:14.153Z,96613.58
2023-02-23T14:23:32.602Z,96603.19
2023-02-23T14:33:45.571Z,96595.80
2023-02-23T14:44:05.317Z,96589.33
2023-02-23T14:54:15.851Z,96583.11
2023-02-23T23:09:44.378Z,96320.45
2023-02-23T23:19:49.397Z,96309.66
2023-02-23T23:29:52.663Z,96295.56
2023-02-23T23:40:05.627Z,96284.05
2023-02-23T23:50:11.825Z,96279.15
